sensor_id;sensor_type;location;lat;lon;timestamp;temperature;humidity
65058;HTU21D;51644;51.068;5.860;2023-02-11T00:00:21;7.45;78.95
65058;HTU21D;51644;51.068;5.860;2023-02-11T00:01:31;7.43;78.94
65058;HTU21D;51644;51.068;5.860;2023-02-11T00:02:31;7.41;78.96
65058;HTU21D;51644;51.068;5.860;2023-02-11T00:03:37;7.41;79.06
65058;HTU21D;51644;51.068;5.860;2023-02-11T00:04:36;7.39;79.13
65058;HTU21D;51644;51.068;5.860;2023-02-11T00:05:35;7.35;79.17
65058;HTU21D;51644;51.068;5.860;2023-02-11T00:06:35;7.31;79.38
65058;HTU21D;51644;51.068;5.860;2023-02-11T00:07:34;7.32;79.37
65058;HTU21D;51644;51.068;5.860;2023-02-11T00:08:34;7.29;79.43
65058;HTU21D;51644;51.068;5.860;2023-02-11T00:09:33;7.26;79.78
65058;HTU21D;51644;51.068;5.860;2023-02-11T00:10:31;7.25;79.66
65058;HTU21D;51644;51.068;5.860;2023-02-11T00:11:30;7.24;79.75
65058;HTU21D;51644;51.068;5.860;2023-02-11T00:12:28;7.22;79.79
65058;HTU21D;51644;51.068;5.860;2023-02-11T00:13:27;7.23;79.82
65058;HTU21D;51644;51.068;5.860;2023-02-11T00:14:25;7.20;79.85
65058;HTU21D;51644;51.068;5.860;2023-02-11T00:15:24;7.20;79.91
65058;HTU21D;51644;51.068;5.860;2023-02-11T00:16:23;7.18;80.05
65058;HTU21D;51644;51.068;5.860;2023-02-11T00:17:24;7.18;80.01
65058;HTU21D;51644;51.068;5.860;2023-02-11T00:18:25;7.16;80.05
65058;HTU21D;51644;51.068;5.860;2023-02-11T00:19:25;7.15;80.14
65058;HTU21D;51644;51.068;5.860;2023-02-11T00:20:25;7.15;80.15
65058;HTU21D;51644;51.068;5.860;2023-02-11T00:21:27;7.14;80.24
65058;HTU21D;51644;51.068;5.860;2023-02-11T00:22:29;7.13;80.26
65058;HTU21D;51644;51.068;5.860;2023-02-11T00:23:28;7.10;80.43
65058;HTU21D;51644;51.068;5.860;2023-02-11T00:24:29;7.09;80.43
65058;HTU21D;51644;51.068;5.860;2023-02-11T00:25:30;7.05;80.49
65058;HTU21D;51644;51.068;5.860;2023-02-11T00:26:34;7.07;80.46
65058;HTU21D;51644;51.068;5.860;2023-02-11T00:27:32;7.05;80.50
65058;HTU21D;51644;51.068;5.860;2023-02-11T00:28:31;7.01;80.78
65058;HTU21D;51644;51.068;5.860;2023-02-11T00:29:29;7.03;80.67
65058;HTU21D;51644;51.068;5.860;2023-02-11T00:30:28;7.01;80.79
65058;HTU21D;51644;51.068;5.860;2023-02-11T00:31:27;7.01;80.85
65058;HTU21D;51644;51.068;5.860;2023-02-11T00:32:26;7.02;80.88
65058;HTU21D;51644;51.068;5.860;2023-02-11T00:33:25;7.04;80.82
65058;HTU21D;51644;51.068;5.860;2023-02-11T00:34:23;7.05;80.85
65058;HTU21D;51644;51.068;5.860;2023-02-11T00:35:22;7.07;80.78
65058;HTU21D;51644;51.068;5.860;2023-02-11T00:36:24;7.05;81.01
65058;HTU21D;51644;51.068;5.860;2023-02-11T00:37:23;7.07;80.96
65058;HTU21D;51644;51.068;5.860;2023-02-11T00:38:21;7.13;80.79
65058;HTU21D;51644;51.068;5.860;2023-02-11T00:39:20;7.14;80.80
65058;HTU21D;51644;51.068;5.860;2023-02-11T00:40:19;7.13;80.92
65058;HTU21D;51644;51.068;5.860;2023-02-11T00:41:18;7.17;80.77
65058;HTU21D;51644;51.068;5.860;2023-02-11T00:42:17;7.20;80.66
65058;HTU21D;51644;51.068;5.860;2023-02-11T00:43:17;7.23;80.65
65058;HTU21D;51644;51.068;5.860;2023-02-11T00:44:15;7.23;80.75
65058;HTU21D;51644;51.068;5.860;2023-02-11T00:45:14;7.23;80.66
65058;HTU21D;51644;51.068;5.860;2023-02-11T00:46:14;7.28;80.59
65058;HTU21D;51644;51.068;5.860;2023-02-11T00:47:12;7.28;80.67
65058;HTU21D;51644;51.068;5.860;2023-02-11T00:48:11;7.31;80.52
65058;HTU21D;51644;51.068;5.860;2023-02-11T00:49:10;7.31;80.45
65058;HTU21D;51644;51.068;5.860;2023-02-11T00:50:09;7.33;80.39
65058;HTU21D;51644;51.068;5.860;2023-02-11T00:51:08;7.37;80.30
65058;HTU21D;51644;51.068;5.860;2023-02-11T00:52:06;7.34;80.39
65058;HTU21D;51644;51.068;5.860;2023-02-11T00:53:10;7.32;80.54
65058;HTU21D;51644;51.068;5.860;2023-02-11T00:54:08;7.39;80.27
65058;HTU21D;51644;51.068;5.860;2023-02-11T00:55:25;7.40;80.28
65058;HTU21D;51644;51.068;5.860;2023-02-11T00:56:24;7.39;80.23
65058;HTU21D;51644;51.068;5.860;2023-02-11T00:57:43;7.37;80.36
65058;HTU21D;51644;51.068;5.860;2023-02-11T00:58:41;7.32;80.52
65058;HTU21D;51644;51.068;5.860;2023-02-11T00:59:40;7.31;80.53
65058;HTU21D;51644;51.068;5.860;2023-02-11T01:00:39;7.29;80.60
65058;HTU21D;51644;51.068;5.860;2023-02-11T01:01:37;7.29;80.50
65058;HTU21D;51644;51.068;5.860;2023-02-11T01:02:37;7.30;80.48
65058;HTU21D;51644;51.068;5.860;2023-02-11T01:03:35;7.32;80.40
65058;HTU21D;51644;51.068;5.860;2023-02-11T01:04:34;7.30;80.39
65058;HTU21D;51644;51.068;5.860;2023-02-11T01:05:33;7.26;80.54
65058;HTU21D;51644;51.068;5.860;2023-02-11T01:06:34;7.25;80.54
65058;HTU21D;51644;51.068;5.860;2023-02-11T01:07:37;7.13;81.41
65058;HTU21D;51644;51.068;5.860;2023-02-11T01:08:53;7.12;81.33
65058;HTU21D;51644;51.068;5.860;2023-02-11T01:09:54;7.09;81.31
65058;HTU21D;51644;51.068;5.860;2023-02-11T01:11:01;7.09;81.36
65058;HTU21D;51644;51.068;5.860;2023-02-11T01:11:59;7.10;81.26
65058;HTU21D;51644;51.068;5.860;2023-02-11T01:12:58;7.08;81.28
65058;HTU21D;51644;51.068;5.860;2023-02-11T01:14:00;7.11;81.16
65058;HTU21D;51644;51.068;5.860;2023-02-11T01:15:00;7.07;81.33
65058;HTU21D;51644;51.068;5.860;2023-02-11T01:15:59;7.04;81.56
65058;HTU21D;51644;51.068;5.860;2023-02-11T01:16:57;7.04;81.46
65058;HTU21D;51644;51.068;5.860;2023-02-11T01:17:56;6.99;81.76
65058;HTU21D;51644;51.068;5.860;2023-02-11T01:18:55;7.00;81.61
65058;HTU21D;51644;51.068;5.860;2023-02-11T01:20:06;6.98;81.84
65058;HTU21D;51644;51.068;5.860;2023-02-11T01:21:05;6.96;81.85
65058;HTU21D;51644;51.068;5.860;2023-02-11T01:22:07;6.94;81.79
65058;HTU21D;51644;51.068;5.860;2023-02-11T01:23:06;6.97;81.80
65058;HTU21D;51644;51.068;5.860;2023-02-11T01:24:05;6.95;81.83
65058;HTU21D;51644;51.068;5.860;2023-02-11T01:25:05;6.95;81.91
65058;HTU21D;51644;51.068;5.860;2023-02-11T01:26:09;6.93;82.05
65058;HTU21D;51644;51.068;5.860;2023-02-11T01:27:08;6.91;82.07
65058;HTU21D;51644;51.068;5.860;2023-02-11T01:28:16;6.88;82.20
65058;HTU21D;51644;51.068;5.860;2023-02-11T01:29:33;6.85;82.58
65058;HTU21D;51644;51.068;5.860;2023-02-11T01:30:40;6.85;82.71
65058;HTU21D;51644;51.068;5.860;2023-02-11T01:31:39;6.88;82.24
65058;HTU21D;51644;51.068;5.860;2023-02-11T01:32:38;6.88;82.10
65058;HTU21D;51644;51.068;5.860;2023-02-11T01:33:37;6.89;82.25
65058;HTU21D;51644;51.068;5.860;2023-02-11T01:34:37;6.93;82.12
65058;HTU21D;51644;51.068;5.860;2023-02-11T01:35:38;6.94;82.13
65058;HTU21D;51644;51.068;5.860;2023-02-11T01:36:37;6.97;82.17
65058;HTU21D;51644;51.068;5.860;2023-02-11T01:37:36;6.99;82.09
65058;HTU21D;51644;51.068;5.860;2023-02-11T01:38:34;6.99;82.10
65058;HTU21D;51644;51.068;5.860;2023-02-11T01:39:34;7.00;82.17
65058;HTU21D;51644;51.068;5.860;2023-02-11T01:40:33;6.99;82.20
65058;HTU21D;51644;51.068;5.860;2023-02-11T01:41:37;7.04;81.97
65058;HTU21D;51644;51.068;5.860;2023-02-11T01:42:36;7.02;81.94
65058;HTU21D;51644;51.068;5.860;2023-02-11T01:43:37;7.03;81.91
65058;HTU21D;51644;51.068;5.860;2023-02-11T01:44:38;6.95;82.44
65058;HTU21D;51644;51.068;5.860;2023-02-11T01:45:54;6.97;82.23
65058;HTU21D;51644;51.068;5.860;2023-02-11T01:46:54;6.98;82.09
65058;HTU21D;51644;51.068;5.860;2023-02-11T01:47:53;6.95;82.29
65058;HTU21D;51644;51.068;5.860;2023-02-11T01:48:56;6.88;82.70
65058;HTU21D;51644;51.068;5.860;2023-02-11T01:49:59;6.89;82.43
65058;HTU21D;51644;51.068;5.860;2023-02-11T01:51:04;6.87;82.48
65058;HTU21D;51644;51.068;5.860;2023-02-11T01:52:33;6.82;82.97
65058;HTU21D;51644;51.068;5.860;2023-02-11T01:53:33;6.82;82.76
65058;HTU21D;51644;51.068;5.860;2023-02-11T01:54:56;6.79;82.94
65058;HTU21D;51644;51.068;5.860;2023-02-11T01:56:17;6.79;82.87
65058;HTU21D;51644;51.068;5.860;2023-02-11T01:57:39;6.80;82.76
65058;HTU21D;51644;51.068;5.860;2023-02-11T01:58:43;6.78;82.94
65058;HTU21D;51644;51.068;5.860;2023-02-11T01:59:46;6.78;82.84
65058;HTU21D;51644;51.068;5.860;2023-02-11T02:00:46;6.75;82.92
65058;HTU21D;51644;51.068;5.860;2023-02-11T02:01:52;6.69;83.61
65058;HTU21D;51644;51.068;5.860;2023-02-11T02:04:08;6.68;83.19
65058;HTU21D;51644;51.068;5.860;2023-02-11T02:05:37;6.68;83.25
65058;HTU21D;51644;51.068;5.860;2023-02-11T02:06:50;6.60;83.65
65058;HTU21D;51644;51.068;5.860;2023-02-11T02:09:26;6.64;83.44
65058;HTU21D;51644;51.068;5.860;2023-02-11T02:10:34;6.60;83.87
65058;HTU21D;51644;51.068;5.860;2023-02-11T02:11:34;6.59;83.85
65058;HTU21D;51644;51.068;5.860;2023-02-11T02:12:34;6.56;84.17
65058;HTU21D;51644;51.068;5.860;2023-02-11T02:13:34;6.57;83.78
65058;HTU21D;51644;51.068;5.860;2023-02-11T02:14:37;6.60;83.72
65058;HTU21D;51644;51.068;5.860;2023-02-11T02:15:38;6.64;83.61
65058;HTU21D;51644;51.068;5.860;2023-02-11T02:16:37;6.63;83.82
65058;HTU21D;51644;51.068;5.860;2023-02-11T02:18:02;6.60;84.08
65058;HTU21D;51644;51.068;5.860;2023-02-11T02:23:25;6.71;83.94
65058;HTU21D;51644;51.068;5.860;2023-02-11T02:26:02;6.76;83.94
65058;HTU21D;51644;51.068;5.860;2023-02-11T02:28:42;6.83;83.82
65058;HTU21D;51644;51.068;5.860;2023-02-11T02:34:12;6.96;83.41
65058;HTU21D;51644;51.068;5.860;2023-02-11T02:37:09;7.08;82.89
65058;HTU21D;51644;51.068;5.860;2023-02-11T02:38:21;7.07;83.24
65058;HTU21D;51644;51.068;5.860;2023-02-11T02:39:25;7.08;83.10
65058;HTU21D;51644;51.068;5.860;2023-02-11T02:40:38;7.08;83.28
65058;HTU21D;51644;51.068;5.860;2023-02-11T02:41:40;7.08;83.26
65058;HTU21D;51644;51.068;5.860;2023-02-11T02:42:40;7.14;82.88
65058;HTU21D;51644;51.068;5.860;2023-02-11T02:43:49;7.13;83.03
65058;HTU21D;51644;51.068;5.860;2023-02-11T02:44:49;7.16;82.71
65058;HTU21D;51644;51.068;5.860;2023-02-11T02:45:49;7.19;82.70
65058;HTU21D;51644;51.068;5.860;2023-02-11T02:46:48;7.17;82.94
65058;HTU21D;51644;51.068;5.860;2023-02-11T02:47:46;7.16;83.11
65058;HTU21D;51644;51.068;5.860;2023-02-11T02:48:47;7.19;82.78
65058;HTU21D;51644;51.068;5.860;2023-02-11T02:49:50;7.23;82.65
65058;HTU21D;51644;51.068;5.860;2023-02-11T02:50:57;7.23;82.65
65058;HTU21D;51644;51.068;5.860;2023-02-11T02:55:16;7.38;82.02
65058;HTU21D;51644;51.068;5.860;2023-02-11T03:00:20;7.43;81.85
65058;HTU21D;51644;51.068;5.860;2023-02-11T03:01:49;7.47;81.64
65058;HTU21D;51644;51.068;5.860;2023-02-11T03:04:21;7.43;81.84
65058;HTU21D;51644;51.068;5.860;2023-02-11T03:05:43;7.47;81.61
65058;HTU21D;51644;51.068;5.860;2023-02-11T03:10:35;7.38;82.20
65058;HTU21D;51644;51.068;5.860;2023-02-11T03:11:36;7.38;82.05
65058;HTU21D;51644;51.068;5.860;2023-02-11T03:12:36;7.37;82.13
65058;HTU21D;51644;51.068;5.860;2023-02-11T03:13:37;7.32;82.44
65058;HTU21D;51644;51.068;5.860;2023-02-11T03:14:38;7.34;82.25
65058;HTU21D;51644;51.068;5.860;2023-02-11T03:15:44;7.37;82.15
65058;HTU21D;51644;51.068;5.860;2023-02-11T03:16:49;7.37;82.12
65058;HTU21D;51644;51.068;5.860;2023-02-11T03:17:55;7.43;82.08
65058;HTU21D;51644;51.068;5.860;2023-02-11T03:19:12;7.34;82.71
65058;HTU21D;51644;51.068;5.860;2023-02-11T03:20:17;7.40;82.13
65058;HTU21D;51644;51.068;5.860;2023-02-11T03:21:18;7.38;82.44
65058;HTU21D;51644;51.068;5.860;2023-02-11T03:22:24;7.34;82.51
65058;HTU21D;51644;51.068;5.860;2023-02-11T03:23:35;7.39;82.33
65058;HTU21D;51644;51.068;5.860;2023-02-11T03:24:38;7.43;82.15
65058;HTU21D;51644;51.068;5.860;2023-02-11T03:25:44;7.45;81.97
65058;HTU21D;51644;51.068;5.860;2023-02-11T03:26:51;7.45;81.89
65058;HTU21D;51644;51.068;5.860;2023-02-11T03:28:12;7.47;81.92
65058;HTU21D;51644;51.068;5.860;2023-02-11T03:29:30;7.50;81.76
65058;HTU21D;51644;51.068;5.860;2023-02-11T03:30:48;7.53;81.65
65058;HTU21D;51644;51.068;5.860;2023-02-11T03:31:53;7.50;81.91
65058;HTU21D;51644;51.068;5.860;2023-02-11T03:33:02;7.46;82.45
65058;HTU21D;51644;51.068;5.860;2023-02-11T03:34:11;7.49;81.97
65058;HTU21D;51644;51.068;5.860;2023-02-11T03:35:25;7.46;82.21
65058;HTU21D;51644;51.068;5.860;2023-02-11T03:36:38;7.44;82.19
65058;HTU21D;51644;51.068;5.860;2023-02-11T03:38:28;7.44;82.31
65058;HTU21D;51644;51.068;5.860;2023-02-11T03:39:26;7.49;81.89
65058;HTU21D;51644;51.068;5.860;2023-02-11T03:40:38;7.49;81.88
65058;HTU21D;51644;51.068;5.860;2023-02-11T03:41:41;7.47;82.20
65058;HTU21D;51644;51.068;5.860;2023-02-11T03:42:57;7.48;82.01
65058;HTU21D;51644;51.068;5.860;2023-02-11T03:43:58;7.52;81.76
65058;HTU21D;51644;51.068;5.860;2023-02-11T03:45:06;7.50;81.87
65058;HTU21D;51644;51.068;5.860;2023-02-11T03:46:07;7.49;82.04
65058;HTU21D;51644;51.068;5.860;2023-02-11T03:47:12;7.53;81.84
65058;HTU21D;51644;51.068;5.860;2023-02-11T03:49:22;7.53;81.76
65058;HTU21D;51644;51.068;5.860;2023-02-11T03:50:25;7.55;81.84
65058;HTU21D;51644;51.068;5.860;2023-02-11T03:51:28;7.55;81.75
65058;HTU21D;51644;51.068;5.860;2023-02-11T03:52:28;7.53;81.84
65058;HTU21D;51644;51.068;5.860;2023-02-11T03:53:27;7.50;81.94
65058;HTU21D;51644;51.068;5.860;2023-02-11T03:54:29;7.55;81.65
65058;HTU21D;51644;51.068;5.860;2023-02-11T03:55:32;7.59;81.57
65058;HTU21D;51644;51.068;5.860;2023-02-11T03:56:39;7.59;81.65
65058;HTU21D;51644;51.068;5.860;2023-02-11T03:57:38;7.61;81.48
65058;HTU21D;51644;51.068;5.860;2023-02-11T03:58:55;7.57;81.69
65058;HTU21D;51644;51.068;5.860;2023-02-11T03:59:57;7.58;81.63
65058;HTU21D;51644;51.068;5.860;2023-02-11T04:00:56;7.56;81.75
65058;HTU21D;51644;51.068;5.860;2023-02-11T04:02:03;7.61;81.56
65058;HTU21D;51644;51.068;5.860;2023-02-11T04:03:03;7.63;81.48
65058;HTU21D;51644;51.068;5.860;2023-02-11T04:04:02;7.64;81.49
65058;HTU21D;51644;51.068;5.860;2023-02-11T04:05:05;7.65;81.51
65058;HTU21D;51644;51.068;5.860;2023-02-11T04:06:05;7.63;81.50
65058;HTU21D;51644;51.068;5.860;2023-02-11T04:07:08;7.57;82.04
65058;HTU21D;51644;51.068;5.860;2023-02-11T04:08:07;7.57;81.84
65058;HTU21D;51644;51.068;5.860;2023-02-11T04:09:05;7.59;81.75
65058;HTU21D;51644;51.068;5.860;2023-02-11T04:10:07;7.55;82.03
65058;HTU21D;51644;51.068;5.860;2023-02-11T04:11:06;7.52;82.17
65058;HTU21D;51644;51.068;5.860;2023-02-11T04:12:04;7.53;81.97
65058;HTU21D;51644;51.068;5.860;2023-02-11T04:13:06;7.50;82.11
65058;HTU21D;51644;51.068;5.860;2023-02-11T04:14:04;7.52;82.02
65058;HTU21D;51644;51.068;5.860;2023-02-11T04:15:03;7.49;82.38
65058;HTU21D;51644;51.068;5.860;2023-02-11T04:16:02;7.52;82.10
65058;HTU21D;51644;51.068;5.860;2023-02-11T04:17:02;7.52;82.39
65058;HTU21D;51644;51.068;5.860;2023-02-11T04:18:00;7.52;82.28
65058;HTU21D;51644;51.068;5.860;2023-02-11T04:19:00;7.52;82.18
65058;HTU21D;51644;51.068;5.860;2023-02-11T04:19:59;7.55;82.12
65058;HTU21D;51644;51.068;5.860;2023-02-11T04:20:57;7.53;82.13
65058;HTU21D;51644;51.068;5.860;2023-02-11T04:21:56;7.55;82.26
65058;HTU21D;51644;51.068;5.860;2023-02-11T04:22:58;7.56;82.04
65058;HTU21D;51644;51.068;5.860;2023-02-11T04:23:56;7.59;81.91
65058;HTU21D;51644;51.068;5.860;2023-02-11T04:24:57;7.59;82.00
65058;HTU21D;51644;51.068;5.860;2023-02-11T04:25:56;7.56;82.16
65058;HTU21D;51644;51.068;5.860;2023-02-11T04:26:54;7.57;82.10
65058;HTU21D;51644;51.068;5.860;2023-02-11T04:27:53;7.55;82.08
65058;HTU21D;51644;51.068;5.860;2023-02-11T04:28:54;7.57;82.26
65058;HTU21D;51644;51.068;5.860;2023-02-11T04:29:52;7.61;81.96
65058;HTU21D;51644;51.068;5.860;2023-02-11T04:31:02;7.62;81.94
65058;HTU21D;51644;51.068;5.860;2023-02-11T04:32:01;7.61;81.97
65058;HTU21D;51644;51.068;5.860;2023-02-11T04:32:59;7.60;82.19
65058;HTU21D;51644;51.068;5.860;2023-02-11T04:33:58;7.59;82.23
65058;HTU21D;51644;51.068;5.860;2023-02-11T04:34:56;7.61;82.10
65058;HTU21D;51644;51.068;5.860;2023-02-11T04:35:55;7.63;82.09
65058;HTU21D;51644;51.068;5.860;2023-02-11T04:36:54;7.57;82.55
65058;HTU21D;51644;51.068;5.860;2023-02-11T04:37:52;7.60;82.26
65058;HTU21D;51644;51.068;5.860;2023-02-11T04:38:51;7.53;83.13
65058;HTU21D;51644;51.068;5.860;2023-02-11T04:39:49;7.55;82.55
65058;HTU21D;51644;51.068;5.860;2023-02-11T04:40:48;7.58;82.39
65058;HTU21D;51644;51.068;5.860;2023-02-11T04:41:47;7.57;82.47
65058;HTU21D;51644;51.068;5.860;2023-02-11T04:42:46;7.62;82.23
65058;HTU21D;51644;51.068;5.860;2023-02-11T04:43:44;7.54;82.91
65058;HTU21D;51644;51.068;5.860;2023-02-11T04:44:43;7.55;82.87
65058;HTU21D;51644;51.068;5.860;2023-02-11T04:45:41;7.56;82.78
65058;HTU21D;51644;51.068;5.860;2023-02-11T04:46:40;7.53;82.83
65058;HTU21D;51644;51.068;5.860;2023-02-11T04:47:39;7.55;82.70
65058;HTU21D;51644;51.068;5.860;2023-02-11T04:48:37;7.59;82.49
65058;HTU21D;51644;51.068;5.860;2023-02-11T04:49:36;7.61;82.47
65058;HTU21D;51644;51.068;5.860;2023-02-11T04:50:34;7.59;82.57
65058;HTU21D;51644;51.068;5.860;2023-02-11T04:51:33;7.63;82.43
65058;HTU21D;51644;51.068;5.860;2023-02-11T04:52:32;7.67;82.34
65058;HTU21D;51644;51.068;5.860;2023-02-11T04:53:30;7.68;82.26
65058;HTU21D;51644;51.068;5.860;2023-02-11T04:54:29;7.70;82.28
65058;HTU21D;51644;51.068;5.860;2023-02-11T04:55:27;7.71;82.25
65058;HTU21D;51644;51.068;5.860;2023-02-11T04:56:26;7.68;82.49
65058;HTU21D;51644;51.068;5.860;2023-02-11T04:57:24;7.62;83.31
65058;HTU21D;51644;51.068;5.860;2023-02-11T04:58:23;7.64;82.67
65058;HTU21D;51644;51.068;5.860;2023-02-11T04:59:25;7.64;82.43
65058;HTU21D;51644;51.068;5.860;2023-02-11T05:00:23;7.62;82.73
65058;HTU21D;51644;51.068;5.860;2023-02-11T05:01:22;7.65;82.60
65058;HTU21D;51644;51.068;5.860;2023-02-11T05:02:20;7.65;82.64
65058;HTU21D;51644;51.068;5.860;2023-02-11T05:03:19;7.60;83.08
65058;HTU21D;51644;51.068;5.860;2023-02-11T05:04:18;7.57;83.25
65058;HTU21D;51644;51.068;5.860;2023-02-11T05:05:19;7.59;82.84
65058;HTU21D;51644;51.068;5.860;2023-02-11T05:06:20;7.62;82.82
65058;HTU21D;51644;51.068;5.860;2023-02-11T05:07:19;7.62;82.92
65058;HTU21D;51644;51.068;5.860;2023-02-11T05:08:17;7.62;82.76
65058;HTU21D;51644;51.068;5.860;2023-02-11T05:09:16;7.67;82.71
65058;HTU21D;51644;51.068;5.860;2023-02-11T05:10:15;7.70;82.70
65058;HTU21D;51644;51.068;5.860;2023-02-11T05:11:18;7.67;82.89
65058;HTU21D;51644;51.068;5.860;2023-02-11T05:12:19;7.62;83.34
65058;HTU21D;51644;51.068;5.860;2023-02-11T05:13:19;7.60;83.35
65058;HTU21D;51644;51.068;5.860;2023-02-11T05:14:17;7.64;82.86
65058;HTU21D;51644;51.068;5.860;2023-02-11T05:15:16;7.62;83.14
65058;HTU21D;51644;51.068;5.860;2023-02-11T05:16:28;7.67;82.87
65058;HTU21D;51644;51.068;5.860;2023-02-11T05:17:33;7.70;82.83
65058;HTU21D;51644;51.068;5.860;2023-02-11T05:18:37;7.69;83.01
65058;HTU21D;51644;51.068;5.860;2023-02-11T05:19:35;7.71;82.87
65058;HTU21D;51644;51.068;5.860;2023-02-11T05:20:44;7.69;82.89
65058;HTU21D;51644;51.068;5.860;2023-02-11T05:21:42;7.65;83.18
65058;HTU21D;51644;51.068;5.860;2023-02-11T05:22:46;7.64;83.00
65058;HTU21D;51644;51.068;5.860;2023-02-11T05:23:50;7.68;82.97
65058;HTU21D;51644;51.068;5.860;2023-02-11T05:24:49;7.65;83.18
65058;HTU21D;51644;51.068;5.860;2023-02-11T05:25:47;7.65;83.14
65058;HTU21D;51644;51.068;5.860;2023-02-11T05:26:46;7.65;83.08
65058;HTU21D;51644;51.068;5.860;2023-02-11T05:27:47;7.65;83.19
65058;HTU21D;51644;51.068;5.860;2023-02-11T05:28:45;7.64;83.26
65058;HTU21D;51644;51.068;5.860;2023-02-11T05:29:47;7.61;83.52
65058;HTU21D;51644;51.068;5.860;2023-02-11T05:30:45;7.63;83.28
65058;HTU21D;51644;51.068;5.860;2023-02-11T05:31:44;7.61;83.45
65058;HTU21D;51644;51.068;5.860;2023-02-11T05:32:43;7.59;83.58
65058;HTU21D;51644;51.068;5.860;2023-02-11T05:33:41;7.60;83.50
65058;HTU21D;51644;51.068;5.860;2023-02-11T05:34:45;7.61;83.46
65058;HTU21D;51644;51.068;5.860;2023-02-11T05:35:44;7.62;83.69
65058;HTU21D;51644;51.068;5.860;2023-02-11T05:36:42;7.59;83.81
65058;HTU21D;51644;51.068;5.860;2023-02-11T05:37:43;7.60;83.59
65058;HTU21D;51644;51.068;5.860;2023-02-11T05:38:41;7.58;83.79
65058;HTU21D;51644;51.068;5.860;2023-02-11T05:39:41;7.57;83.81
65058;HTU21D;51644;51.068;5.860;2023-02-11T05:40:42;7.56;84.00
65058;HTU21D;51644;51.068;5.860;2023-02-11T05:41:41;7.54;84.04
65058;HTU21D;51644;51.068;5.860;2023-02-11T05:42:40;7.56;83.86
65058;HTU21D;51644;51.068;5.860;2023-02-11T05:43:38;7.56;83.92
65058;HTU21D;51644;51.068;5.860;2023-02-11T05:44:37;7.57;83.92
65058;HTU21D;51644;51.068;5.860;2023-02-11T05:45:35;7.58;83.96
65058;HTU21D;51644;51.068;5.860;2023-02-11T05:46:34;7.56;84.07
65058;HTU21D;51644;51.068;5.860;2023-02-11T05:47:33;7.53;84.33
65058;HTU21D;51644;51.068;5.860;2023-02-11T05:48:32;7.57;84.12
65058;HTU21D;51644;51.068;5.860;2023-02-11T05:49:30;7.55;84.18
65058;HTU21D;51644;51.068;5.860;2023-02-11T05:50:32;7.54;84.27
65058;HTU21D;51644;51.068;5.860;2023-02-11T05:51:33;7.52;84.24
65058;HTU21D;51644;51.068;5.860;2023-02-11T05:52:33;7.53;84.21
65058;HTU21D;51644;51.068;5.860;2023-02-11T05:53:32;7.55;84.19
65058;HTU21D;51644;51.068;5.860;2023-02-11T05:54:30;7.54;84.34
65058;HTU21D;51644;51.068;5.860;2023-02-11T05:55:32;7.55;84.27
65058;HTU21D;51644;51.068;5.860;2023-02-11T05:56:33;7.59;84.16
65058;HTU21D;51644;51.068;5.860;2023-02-11T05:57:34;7.60;84.19
65058;HTU21D;51644;51.068;5.860;2023-02-11T05:58:33;7.59;84.25
65058;HTU21D;51644;51.068;5.860;2023-02-11T05:59:31;7.56;84.41
65058;HTU21D;51644;51.068;5.860;2023-02-11T06:00:30;7.57;84.24
65058;HTU21D;51644;51.068;5.860;2023-02-11T06:01:29;7.61;84.19
65058;HTU21D;51644;51.068;5.860;2023-02-11T06:02:27;7.61;84.23
65058;HTU21D;51644;51.068;5.860;2023-02-11T06:03:26;7.64;84.17
65058;HTU21D;51644;51.068;5.860;2023-02-11T06:04:25;7.61;84.37
65058;HTU21D;51644;51.068;5.860;2023-02-11T06:05:23;7.62;84.31
65058;HTU21D;51644;51.068;5.860;2023-02-11T06:06:22;7.63;84.26
65058;HTU21D;51644;51.068;5.860;2023-02-11T06:07:21;7.65;84.16
65058;HTU21D;51644;51.068;5.860;2023-02-11T06:08:20;7.68;84.08
65058;HTU21D;51644;51.068;5.860;2023-02-11T06:09:18;7.69;84.21
65058;HTU21D;51644;51.068;5.860;2023-02-11T06:10:18;7.70;84.09
65058;HTU21D;51644;51.068;5.860;2023-02-11T06:11:17;7.68;84.08
65058;HTU21D;51644;51.068;5.860;2023-02-11T06:12:15;7.71;84.13
65058;HTU21D;51644;51.068;5.860;2023-02-11T06:13:14;7.72;84.07
65058;HTU21D;51644;51.068;5.860;2023-02-11T06:14:15;7.73;84.10
65058;HTU21D;51644;51.068;5.860;2023-02-11T06:15:14;7.73;84.06
65058;HTU21D;51644;51.068;5.860;2023-02-11T06:16:13;7.76;83.96
65058;HTU21D;51644;51.068;5.860;2023-02-11T06:17:23;7.75;83.96
65058;HTU21D;51644;51.068;5.860;2023-02-11T06:18:23;7.77;84.00
65058;HTU21D;51644;51.068;5.860;2023-02-11T06:19:21;7.78;83.98
65058;HTU21D;51644;51.068;5.860;2023-02-11T06:20:20;7.79;83.98
65058;HTU21D;51644;51.068;5.860;2023-02-11T06:21:21;7.79;83.97
65058;HTU21D;51644;51.068;5.860;2023-02-11T06:22:20;7.79;83.93
65058;HTU21D;51644;51.068;5.860;2023-02-11T06:23:19;7.83;83.91
65058;HTU21D;51644;51.068;5.860;2023-02-11T06:24:17;7.81;83.94
65058;HTU21D;51644;51.068;5.860;2023-02-11T06:25:16;7.79;84.04
65058;HTU21D;51644;51.068;5.860;2023-02-11T06:26:18;7.79;83.90
65058;HTU21D;51644;51.068;5.860;2023-02-11T06:27:17;7.83;83.90
65058;HTU21D;51644;51.068;5.860;2023-02-11T06:28:16;7.84;83.94
65058;HTU21D;51644;51.068;5.860;2023-02-11T06:29:17;7.86;83.92
65058;HTU21D;51644;51.068;5.860;2023-02-11T06:30:16;7.87;83.91
65058;HTU21D;51644;51.068;5.860;2023-02-11T06:31:15;7.90;83.87
65058;HTU21D;51644;51.068;5.860;2023-02-11T06:32:14;7.90;83.82
65058;HTU21D;51644;51.068;5.860;2023-02-11T06:33:12;7.89;83.74
65058;HTU21D;51644;51.068;5.860;2023-02-11T06:34:11;7.87;83.78
65058;HTU21D;51644;51.068;5.860;2023-02-11T06:35:10;7.89;83.85
65058;HTU21D;51644;51.068;5.860;2023-02-11T06:36:17;7.87;83.93
65058;HTU21D;51644;51.068;5.860;2023-02-11T06:37:15;7.88;83.91
65058;HTU21D;51644;51.068;5.860;2023-02-11T06:38:14;7.87;83.97
65058;HTU21D;51644;51.068;5.860;2023-02-11T06:39:12;7.85;84.01
65058;HTU21D;51644;51.068;5.860;2023-02-11T06:40:11;7.84;84.08
65058;HTU21D;51644;51.068;5.860;2023-02-11T06:41:11;7.82;84.42
65058;HTU21D;51644;51.068;5.860;2023-02-11T06:42:10;7.75;84.60
65058;HTU21D;51644;51.068;5.860;2023-02-11T06:43:09;7.74;84.50
65058;HTU21D;51644;51.068;5.860;2023-02-11T06:44:07;7.75;84.46
65058;HTU21D;51644;51.068;5.860;2023-02-11T06:45:07;7.77;84.57
65058;HTU21D;51644;51.068;5.860;2023-02-11T06:46:08;7.75;84.73
65058;HTU21D;51644;51.068;5.860;2023-02-11T06:47:07;7.77;84.63
65058;HTU21D;51644;51.068;5.860;2023-02-11T06:48:08;7.74;84.68
65058;HTU21D;51644;51.068;5.860;2023-02-11T06:49:07;7.70;85.05
65058;HTU21D;51644;51.068;5.860;2023-02-11T06:50:11;7.70;85.04
65058;HTU21D;51644;51.068;5.860;2023-02-11T06:51:11;7.68;85.23
65058;HTU21D;51644;51.068;5.860;2023-02-11T06:52:13;7.64;85.61
65058;HTU21D;51644;51.068;5.860;2023-02-11T06:53:11;7.62;85.55
65058;HTU21D;51644;51.068;5.860;2023-02-11T06:54:11;7.63;85.42
65058;HTU21D;51644;51.068;5.860;2023-02-11T06:55:10;7.60;85.56
65058;HTU21D;51644;51.068;5.860;2023-02-11T06:56:12;7.61;85.67
65058;HTU21D;51644;51.068;5.860;2023-02-11T06:57:11;7.60;85.85
65058;HTU21D;51644;51.068;5.860;2023-02-11T06:58:10;7.60;85.72
65058;HTU21D;51644;51.068;5.860;2023-02-11T06:59:15;7.59;85.72
65058;HTU21D;51644;51.068;5.860;2023-02-11T07:00:14;7.61;85.67